createdAt,value
2022-10-23T00:00:36.015Z,1004.67
2022-10-23T00:01:35.998Z,1004.62
2022-10-23T00:02:36.016Z,1004.63
2022-10-23T00:03:35.945Z,1004.62
2022-10-23T00:04:35.915Z,1004.61
2022-10-23T00:05:35.913Z,1004.71
2022-10-23T00:06:35.889Z,1004.74
2022-10-23T00:07:35.881Z,1004.74
2022-10-23T00:08:35.918Z,1004.70
2022-10-23T00:09:35.855Z,1004.69
2022-10-23T00:10:35.840Z,1004.63
2022-10-23T00:11:35.828Z,1004.68
2022-10-23T00:12:35.810Z,1004.70
2022-10-23T00:13:35.810Z,1004.68
2022-10-23T00:14:35.829Z,1004.69
2022-10-23T00:15:35.769Z,1004.68
2022-10-23T00:16:35.771Z,1004.65
2022-10-23T00:17:35.770Z,1004.64
2022-10-23T00:18:35.745Z,1004.65
2022-10-23T00:19:35.720Z,1004.65
2022-10-23T00:20:35.723Z,1004.67
2022-10-23T00:21:35.706Z,1004.65
2022-10-23T00:22:35.684Z,1004.68
2022-10-23T00:23:35.677Z,1004.65
2022-10-23T00:24:35.684Z,1004.65
2022-10-23T00:25:35.646Z,1004.65
2022-10-23T00:26:35.650Z,1004.64
2022-10-23T00:27:35.648Z,1004.73
2022-10-23T00:28:35.606Z,1004.73
2022-10-23T00:29:35.608Z,1004.75
2022-10-23T00:30:35.577Z,1004.68
2022-10-23T00:31:35.584Z,1004.71
2022-10-23T00:32:35.583Z,1004.75
2022-10-23T00:33:35.543Z,1004.73
2022-10-23T00:34:35.537Z,1004.71
2022-10-23T00:35:35.515Z,1004.67
2022-10-23T00:36:35.510Z,1004.69
2022-10-23T00:37:35.502Z,1004.68
2022-10-23T00:38:35.513Z,1004.67
2022-10-23T00:39:35.471Z,1004.67
2022-10-23T00:40:35.481Z,1004.68
2022-10-23T00:41:35.452Z,1004.68
2022-10-23T00:42:35.432Z,1004.67
2022-10-23T00:43:35.423Z,1004.67
2022-10-23T00:44:35.427Z,1004.69
2022-10-23T00:45:35.397Z,1004.66
2022-10-23T00:46:35.388Z,1004.65
2022-10-23T00:47:35.374Z,1004.72
2022-10-23T00:48:35.359Z,1004.68
2022-10-23T00:49:36.074Z,1004.71
2022-10-23T00:50:35.344Z,1004.68
2022-10-23T00:51:35.326Z,1004.68
2022-10-23T00:52:35.314Z,1004.69
2022-10-23T00:53:35.299Z,1004.70
2022-10-23T00:54:35.313Z,1004.67
2022-10-23T00:55:35.277Z,1004.73
2022-10-23T00:56:35.269Z,1004.68
2022-10-23T00:57:35.247Z,1004.68
2022-10-23T00:58:35.239Z,1004.68
2022-10-23T00:59:35.245Z,1004.69
2022-10-23T01:00:35.202Z,1004.65
2022-10-23T01:01:35.340Z,1004.68
2022-10-23T01:02:35.320Z,1004.68
2022-10-23T01:03:35.167Z,1004.66
2022-10-23T01:04:35.221Z,1004.64
2022-10-23T01:05:35.174Z,1004.60
2022-10-23T01:06:35.186Z,1004.62
2022-10-23T01:07:35.119Z,1004.56
2022-10-23T01:08:35.114Z,1004.62
2022-10-23T01:09:35.118Z,1004.56
2022-10-23T01:10:35.075Z,1004.57
2022-10-23T01:11:35.060Z,1004.57
2022-10-23T01:12:35.048Z,1004.55
2022-10-23T01:13:35.078Z,1004.51
2022-10-23T01:14:35.035Z,1004.52
2022-10-23T01:15:35.020Z,1004.54
2022-10-23T01:16:35.030Z,1004.50
2022-10-23T01:17:35.003Z,1004.50
2022-10-23T01:18:34.997Z,1004.52
2022-10-23T01:19:34.972Z,1004.44
2022-10-23T01:20:34.964Z,1004.43
2022-10-23T01:21:34.941Z,1004.43
2022-10-23T01:22:34.932Z,1004.46
2022-10-23T01:23:34.951Z,1004.45
2022-10-23T01:24:34.913Z,1004.47
2022-10-23T01:25:34.897Z,1004.46
2022-10-23T01:26:34.883Z,1004.47
2022-10-23T01:27:34.895Z,1004.51
2022-10-23T01:28:34.851Z,1004.44
2022-10-23T01:29:34.862Z,1004.45
2022-10-23T01:30:34.860Z,1004.46
2022-10-23T01:31:34.810Z,1004.49
2022-10-23T01:32:34.808Z,1004.46
2022-10-23T01:33:34.832Z,1004.48
2022-10-23T01:34:34.793Z,1004.46
2022-10-23T01:35:34.772Z,1004.48
2022-10-23T01:36:34.751Z,1004.45
2022-10-23T01:37:34.740Z,1004.41
2022-10-23T01:38:34.757Z,1004.42
2022-10-23T01:39:34.713Z,1004.43
2022-10-23T01:40:34.711Z,1004.43
2022-10-23T01:41:34.694Z,1004.43
2022-10-23T01:42:34.683Z,1004.39
2022-10-23T01:43:34.672Z,1004.37
2022-10-23T01:44:34.674Z,1004.36
2022-10-23T01:45:34.638Z,1004.29
2022-10-23T01:46:34.638Z,1004.33
2022-10-23T01:47:34.622Z,1004.32
2022-10-23T01:48:34.597Z,1004.29
2022-10-23T01:49:34.588Z,1004.28
2022-10-23T01:50:34.609Z,1004.27
2022-10-23T01:51:34.568Z,1004.28
2022-10-23T01:52:34.558Z,1004.23
2022-10-23T01:53:34.538Z,1004.24
2022-10-23T01:54:34.550Z,1004.22
2022-10-23T01:55:34.613Z,1004.25
2022-10-23T01:56:34.531Z,1004.22
2022-10-23T01:57:34.497Z,1004.20
2022-10-23T01:58:34.516Z,1004.22
2022-10-23T01:59:34.467Z,1004.20
2022-10-23T02:00:34.520Z,1004.17
2022-10-23T02:01:34.627Z,1004.14
2022-10-23T02:02:34.555Z,1004.12
2022-10-23T02:03:34.413Z,1004.04
2022-10-23T02:04:34.425Z,1004.05
2022-10-23T02:05:34.466Z,1004.04
2022-10-23T02:06:34.377Z,1004.02
2022-10-23T02:07:34.379Z,1003.95
2022-10-23T02:08:34.390Z,1003.93
2022-10-23T02:09:34.337Z,1003.88
2022-10-23T02:10:35.037Z,1003.86
2022-10-23T02:11:34.317Z,1003.88
2022-10-23T02:12:34.300Z,1003.81
2022-10-23T02:13:34.318Z,1003.83
2022-10-23T02:14:34.320Z,1003.82
2022-10-23T02:15:34.434Z,1003.78
2022-10-23T02:16:34.254Z,1003.80
2022-10-23T02:17:34.234Z,1003.78
2022-10-23T02:18:34.232Z,1003.81
2022-10-23T02:19:34.211Z,1003.77
2022-10-23T02:20:34.285Z,1003.78
2022-10-23T02:21:34.181Z,1003.73
2022-10-23T02:22:34.171Z,1003.76
2022-10-23T02:23:34.160Z,1003.71
2022-10-23T02:24:34.163Z,1003.76
2022-10-23T02:25:34.227Z,1003.72
2022-10-23T02:26:34.138Z,1003.73
2022-10-23T02:27:34.123Z,1003.77
2022-10-23T02:28:34.113Z,1003.69
2022-10-23T02:29:34.084Z,1003.73
2022-10-23T02:30:34.247Z,1003.74
2022-10-23T02:31:34.078Z,1003.72
2022-10-23T02:32:34.058Z,1003.68
2022-10-23T02:33:34.040Z,1003.67
2022-10-23T02:34:34.019Z,1003.66
2022-10-23T02:35:34.166Z,1003.63
2022-10-23T02:36:33.999Z,1003.63
2022-10-23T02:37:33.982Z,1003.62
2022-10-23T02:38:34.025Z,1003.57
2022-10-23T02:39:33.992Z,1003.58
2022-10-23T02:40:33.950Z,1003.62
2022-10-23T02:41:33.932Z,1003.65
2022-10-23T02:42:33.925Z,1003.67
2022-10-23T02:43:33.909Z,1003.65
2022-10-23T02:44:33.914Z,1003.67
2022-10-23T02:45:33.927Z,1003.66
2022-10-23T02:46:33.866Z,1003.69
2022-10-23T02:47:33.898Z,1003.65
2022-10-23T02:48:33.845Z,1003.63
2022-10-23T02:49:33.852Z,1003.59
2022-10-23T02:50:33.826Z,1003.58
2022-10-23T02:51:33.811Z,1003.54
2022-10-23T02:52:33.818Z,1003.58
2022-10-23T02:53:33.783Z,1003.57
2022-10-23T02:54:33.804Z,1003.55
2022-10-23T02:55:33.768Z,1003.55
2022-10-23T02:56:36.634Z,1003.54
2022-10-23T02:57:33.755Z,1003.57
2022-10-23T02:58:33.718Z,1003.49
2022-10-23T02:59:33.717Z,1003.46
2022-10-23T03:00:33.707Z,1003.41
2022-10-23T03:01:33.816Z,1003.43
2022-10-23T03:02:33.686Z,1003.40
2022-10-23T03:03:33.669Z,1003.44
2022-10-23T03:04:33.656Z,1003.42
2022-10-23T03:05:33.850Z,1003.40
2022-10-23T03:06:33.615Z,1003.46
2022-10-23T03:07:33.604Z,1003.49
2022-10-23T03:08:33.616Z,1003.42
2022-10-23T03:09:33.589Z,1003.43
2022-10-23T03:10:33.580Z,1003.48
2022-10-23T03:11:33.559Z,1003.47
2022-10-23T03:12:33.559Z,1003.48
2022-10-23T03:13:33.534Z,1003.41
2022-10-23T03:14:33.525Z,1003.40
2022-10-23T03:15:33.512Z,1003.41
2022-10-23T03:16:33.486Z,1003.38
2022-10-23T03:17:33.482Z,1003.32
2022-10-23T03:18:33.476Z,1003.35
2022-10-23T03:19:33.448Z,1003.30
2022-10-23T03:20:33.454Z,1003.30
2022-10-23T03:21:33.432Z,1003.29
2022-10-23T03:22:33.419Z,1003.26
2022-10-23T03:23:33.400Z,1003.25
2022-10-23T03:24:33.391Z,1003.24
2022-10-23T03:25:33.388Z,1003.26
2022-10-23T03:26:33.379Z,1003.23
2022-10-23T03:27:33.357Z,1003.19
2022-10-23T03:28:33.366Z,1003.17
2022-10-23T03:29:33.327Z,1003.18
2022-10-23T03:30:33.320Z,1003.16
2022-10-23T03:31:33.305Z,1003.13
2022-10-23T03:32:33.304Z,1003.11
2022-10-23T03:33:33.284Z,1003.06
2022-10-23T03:34:33.272Z,1003.04
2022-10-23T03:35:33.252Z,1003.03
2022-10-23T03:36:33.239Z,1003.04
2022-10-23T03:37:33.227Z,1003.03
2022-10-23T03:38:33.238Z,1002.99
2022-10-23T03:39:33.202Z,1003.02
2022-10-23T03:40:33.190Z,1003.00
2022-10-23T03:41:33.181Z,1002.97
2022-10-23T03:42:33.161Z,1002.99
2022-10-23T03:43:33.167Z,1002.96
2022-10-23T03:44:33.179Z,1002.95
2022-10-23T03:45:33.124Z,1002.97
2022-10-23T03:46:33.112Z,1002.99
2022-10-23T03:47:33.096Z,1002.95
2022-10-23T03:48:33.086Z,1002.96
2022-10-23T03:49:33.077Z,1002.90
2022-10-23T03:50:33.077Z,1002.93
2022-10-23T03:51:33.055Z,1002.93
2022-10-23T03:52:33.039Z,1002.95
2022-10-23T03:53:33.028Z,1002.91
2022-10-23T03:54:33.013Z,1002.85
2022-10-23T03:55:33.002Z,1002.84
2022-10-23T03:56:33.000Z,1002.90
2022-10-23T03:57:32.976Z,1002.90
2022-10-23T03:58:32.959Z,1002.89
2022-10-23T03:59:32.973Z,1002.88
2022-10-23T04:00:33.024Z,1002.85
2022-10-23T04:01:33.013Z,1002.82
2022-10-23T04:02:33.027Z,1002.80
2022-10-23T04:03:32.901Z,1002.75
2022-10-23T04:04:32.891Z,1002.79
2022-10-23T04:05:32.906Z,1002.79
2022-10-23T04:06:32.882Z,1002.81
2022-10-23T04:07:32.850Z,1002.77
2022-10-23T04:08:32.871Z,1002.80
2022-10-23T04:09:32.846Z,1002.76
2022-10-23T04:10:32.814Z,1002.76
2022-10-23T04:11:32.804Z,1002.71
2022-10-23T04:12:32.790Z,1002.72
2022-10-23T04:13:32.793Z,1002.65
2022-10-23T04:14:32.783Z,1002.71
2022-10-23T04:15:32.762Z,1002.76
2022-10-23T04:16:32.750Z,1002.76
2022-10-23T04:17:32.731Z,1002.76
2022-10-23T04:18:32.712Z,1002.77
2022-10-23T04:19:32.705Z,1002.79
2022-10-23T04:20:32.698Z,1002.79
2022-10-23T04:21:32.672Z,1002.77
2022-10-23T04:22:32.663Z,1002.79
2022-10-23T04:23:32.658Z,1002.79
2022-10-23T04:24:32.635Z,1002.82
2022-10-23T04:25:32.639Z,1002.82
2022-10-23T04:26:32.627Z,1002.85
2022-10-23T04:27:32.605Z,1002.87
2022-10-23T04:28:32.593Z,1002.87
2022-10-23T04:29:32.585Z,1002.88
2022-10-23T04:30:32.561Z,1002.86
2022-10-23T04:31:32.548Z,1002.85
2022-10-23T04:32:32.547Z,1002.83
2022-10-23T04:33:32.528Z,1002.86
2022-10-23T04:34:32.540Z,1002.86
2022-10-23T04:35:32.529Z,1002.88
2022-10-23T04:36:32.502Z,1002.82
2022-10-23T04:37:32.501Z,1002.85
2022-10-23T04:38:32.468Z,1002.80
2022-10-23T04:39:32.453Z,1002.79
2022-10-23T04:40:32.438Z,1002.77
2022-10-23T04:41:32.427Z,1002.78
2022-10-23T04:42:32.425Z,1002.78
2022-10-23T04:43:32.403Z,1002.75
2022-10-23T04:44:32.398Z,1002.75
2022-10-23T04:45:32.374Z,1002.76
2022-10-23T04:46:32.359Z,1002.71
2022-10-23T04:47:32.352Z,1002.72
2022-10-23T04:48:32.337Z,1002.71
2022-10-23T04:49:32.371Z,1002.71
2022-10-23T04:50:32.320Z,1002.65
2022-10-23T04:51:32.336Z,1002.65
2022-10-23T04:52:32.301Z,1002.63
2022-10-23T04:53:32.270Z,1002.65
2022-10-23T04:54:38.273Z,1002.61
2022-10-23T04:55:32.259Z,1002.57
2022-10-23T04:56:32.264Z,1002.56
2022-10-23T04:57:32.225Z,1002.57
2022-10-23T04:58:32.216Z,1002.51
2022-10-23T04:59:32.227Z,1002.50
2022-10-23T05:00:32.275Z,1002.53
2022-10-23T05:01:32.313Z,1002.53
2022-10-23T05:02:32.189Z,1002.46
2022-10-23T05:03:32.149Z,1002.47
2022-10-23T05:04:32.141Z,1002.45
2022-10-23T05:05:32.129Z,1002.45
2022-10-23T05:06:32.106Z,1002.34
2022-10-23T05:07:32.096Z,1002.35
2022-10-23T05:08:32.133Z,1002.36
2022-10-23T05:09:32.071Z,1002.35
2022-10-23T05:10:32.067Z,1002.37
2022-10-23T05:11:32.056Z,1002.36
2022-10-23T05:12:32.909Z,1002.39
2022-10-23T05:13:32.028Z,1002.44
2022-10-23T05:14:32.035Z,1002.45
2022-10-23T05:15:32.038Z,1002.45
2022-10-23T05:16:31.990Z,1002.50
2022-10-23T05:17:32.007Z,1002.50
2022-10-23T05:18:31.962Z,1002.47
2022-10-23T05:19:31.948Z,1002.49
2022-10-23T05:20:31.942Z,1002.44
2022-10-23T05:21:31.933Z,1002.41
2022-10-23T05:22:31.903Z,1002.37
2022-10-23T05:23:31.895Z,1002.34
2022-10-23T05:24:31.912Z,1002.34
2022-10-23T05:25:31.879Z,1002.35
2022-10-23T05:26:31.873Z,1002.37
2022-10-23T05:27:31.867Z,1002.40
2022-10-23T05:28:31.839Z,1002.37
2022-10-23T05:29:31.778Z,1002.35
2022-10-23T05:30:31.809Z,1002.35
2022-10-23T05:31:31.805Z,1002.33
2022-10-23T05:32:31.806Z,1002.30
2022-10-23T05:33:31.769Z,1002.35
2022-10-23T05:34:31.717Z,1002.31
2022-10-23T05:35:31.706Z,1002.34
2022-10-23T05:36:31.734Z,1002.30
2022-10-23T05:37:31.718Z,1002.32
2022-10-23T05:38:31.680Z,1002.30
2022-10-23T05:39:31.636Z,1002.33
2022-10-23T05:40:31.669Z,1002.31
2022-10-23T05:41:31.637Z,1002.25
2022-10-23T05:42:31.611Z,1002.30
2022-10-23T05:43:31.615Z,1002.36
2022-10-23T05:44:31.615Z,1002.36
2022-10-23T05:45:31.565Z,1002.42
2022-10-23T05:46:31.566Z,1002.43
2022-10-23T05:47:31.574Z,1002.35
2022-10-23T05:48:34.588Z,1002.28
2022-10-23T05:49:31.539Z,1002.25
2022-10-23T05:50:31.551Z,1002.26
2022-10-23T05:51:31.492Z,1002.28
2022-10-23T05:52:31.485Z,1002.24
2022-10-23T05:53:31.480Z,1002.25
2022-10-23T05:54:31.461Z,1002.23
2022-10-23T05:55:31.438Z,1002.19
2022-10-23T05:56:31.443Z,1002.16
2022-10-23T05:57:31.444Z,1002.15
2022-10-23T05:58:31.400Z,1002.18
2022-10-23T05:59:31.388Z,1002.15
2022-10-23T06:00:31.438Z,1002.15
2022-10-23T06:01:31.493Z,1002.16
2022-10-23T06:02:31.469Z,1002.15
2022-10-23T06:03:31.371Z,1002.11
2022-10-23T06:04:31.323Z,1002.13
2022-10-23T06:05:31.354Z,1002.11
2022-10-23T06:06:31.313Z,1002.05
2022-10-23T06:07:33.672Z,1002.03
2022-10-23T06:08:31.310Z,1001.93
2022-10-23T06:09:31.269Z,1001.96
2022-10-23T06:10:31.263Z,1001.91
2022-10-23T06:11:31.239Z,1001.91
2022-10-23T06:12:31.229Z,1001.88
2022-10-23T06:13:31.234Z,1001.92
2022-10-23T06:14:31.213Z,1001.91
2022-10-23T06:15:31.206Z,1001.91
2022-10-23T06:16:31.183Z,1001.91
2022-10-23T06:17:31.164Z,1001.87
2022-10-23T06:18:31.174Z,1001.84
2022-10-23T06:19:31.149Z,1001.85
2022-10-23T06:20:31.155Z,1001.84
2022-10-23T06:21:31.118Z,1001.86
2022-10-23T06:22:31.101Z,1001.86
2022-10-23T06:23:31.084Z,1001.87
2022-10-23T06:24:31.079Z,1001.86
2022-10-23T06:25:31.088Z,1001.85
2022-10-23T06:26:31.061Z,1001.87
2022-10-23T06:27:31.049Z,1001.86
2022-10-23T06:28:31.056Z,1001.82
2022-10-23T06:29:31.021Z,1001.79
2022-10-23T06:30:31.028Z,1001.73
2022-10-23T06:31:30.990Z,1001.71
2022-10-23T06:32:30.994Z,1001.73
2022-10-23T06:33:30.979Z,1001.73
2022-10-23T06:34:30.952Z,1001.74
2022-10-23T06:35:31.029Z,1001.78
2022-10-23T06:36:30.966Z,1001.73
2022-10-23T06:37:30.938Z,1001.69
2022-10-23T06:38:30.916Z,1001.70
2022-10-23T06:39:32.170Z,1001.69
2022-10-23T06:40:30.878Z,1001.71
2022-10-23T06:41:30.898Z,1001.75
2022-10-23T06:42:30.853Z,1001.69
2022-10-23T06:43:30.839Z,1001.70
2022-10-23T06:44:30.874Z,1001.71
2022-10-23T06:45:30.828Z,1001.68
2022-10-23T06:46:30.807Z,1001.71
2022-10-23T06:47:30.796Z,1001.78
2022-10-23T06:48:30.778Z,1001.74
2022-10-23T06:49:30.756Z,1001.75
2022-10-23T06:50:30.761Z,1001.75
2022-10-23T06:51:30.735Z,1001.82
2022-10-23T06:52:45.936Z,1001.79
2022-10-23T06:53:30.725Z,1001.80
2022-10-23T06:54:30.696Z,1001.80
2022-10-23T06:55:30.708Z,1001.83
2022-10-23T06:56:30.698Z,1001.83
2022-10-23T06:57:30.657Z,1001.87
2022-10-23T06:58:30.641Z,1001.83
2022-10-23T06:59:30.653Z,1001.85
2022-10-23T07:00:30.680Z,1001.85
2022-10-23T07:01:30.821Z,1001.85
2022-10-23T07:02:30.610Z,1001.90
2022-10-23T07:03:30.588Z,1001.92
2022-10-23T07:04:30.591Z,1001.85
2022-10-23T07:05:30.557Z,1001.83
2022-10-23T07:06:30.572Z,1001.83
2022-10-23T07:07:30.533Z,1001.81
2022-10-23T07:08:30.531Z,1001.76
2022-10-23T07:09:30.515Z,1001.77
2022-10-23T07:10:30.496Z,1001.71
2022-10-23T07:11:30.480Z,1001.69
2022-10-23T07:12:30.467Z,1001.68
2022-10-23T07:13:30.482Z,1001.71
2022-10-23T07:14:30.478Z,1001.67
2022-10-23T07:15:30.428Z,1001.65
2022-10-23T07:16:30.444Z,1001.67
2022-10-23T07:17:30.403Z,1001.63
2022-10-23T07:18:30.441Z,1001.64
2022-10-23T07:19:30.398Z,1001.56
2022-10-23T07:20:30.393Z,1001.59
2022-10-23T07:21:30.364Z,1001.63
2022-10-23T07:22:30.353Z,1001.66
2022-10-23T07:23:30.346Z,1001.66
2022-10-23T07:24:30.333Z,1001.66
2022-10-23T07:25:30.332Z,1001.61
2022-10-23T07:26:30.314Z,1001.61
2022-10-23T07:27:30.283Z,1001.63
2022-10-23T07:28:30.281Z,1001.56
2022-10-23T07:29:30.254Z,1001.68
2022-10-23T07:30:30.244Z,1001.63
2022-10-23T07:31:30.231Z,1001.66
2022-10-23T07:32:30.247Z,1001.72
2022-10-23T07:33:30.226Z,1001.65
2022-10-23T07:34:30.191Z,1001.62
2022-10-23T07:35:31.309Z,1001.61
2022-10-23T07:36:30.171Z,1001.57
2022-10-23T07:37:30.148Z,1001.60
2022-10-23T07:38:30.187Z,1001.60
2022-10-23T07:39:30.155Z,1001.59
2022-10-23T07:40:30.109Z,1001.57
2022-10-23T07:41:30.155Z,1001.61
2022-10-23T07:42:30.089Z,1001.64
2022-10-23T07:43:30.093Z,1001.63
2022-10-23T07:44:30.084Z,1001.60
2022-10-23T07:45:30.088Z,1001.56
2022-10-23T07:46:30.041Z,1001.57
2022-10-23T07:47:30.024Z,1001.55
2022-10-23T07:48:30.021Z,1001.54
2022-10-23T07:49:30.020Z,1001.51
2022-10-23T07:50:29.991Z,1001.53
2022-10-23T07:51:29.970Z,1001.43
2022-10-23T07:52:32.163Z,1001.45
2022-10-23T07:53:29.961Z,1001.43
2022-10-23T07:54:29.932Z,1001.37
2022-10-23T07:55:29.921Z,1001.38
2022-10-23T07:56:29.955Z,1001.37
2022-10-23T07:57:29.893Z,1001.36
2022-10-23T07:58:29.896Z,1001.35
2022-10-23T07:59:31.731Z,1001.37
2022-10-23T08:00:29.900Z,1001.35
2022-10-23T08:01:30.006Z,1001.34
2022-10-23T08:02:29.892Z,1001.29
2022-10-23T08:03:29.824Z,1001.29
2022-10-23T08:04:29.802Z,1001.36
2022-10-23T08:05:29.808Z,1001.32
2022-10-23T08:06:29.844Z,1001.34
2022-10-23T08:07:29.789Z,1001.35
2022-10-23T08:08:29.760Z,1001.35
2022-10-23T08:09:29.743Z,1001.32
2022-10-23T08:10:29.731Z,1001.27
2022-10-23T08:11:29.732Z,1001.33
2022-10-23T08:12:29.720Z,1001.23
2022-10-23T08:13:29.696Z,1001.24
2022-10-23T08:14:29.689Z,1001.20
2022-10-23T08:15:29.663Z,1001.22
2022-10-23T08:16:29.733Z,1001.22
2022-10-23T08:17:29.680Z,1001.17
2022-10-23T08:18:29.626Z,1001.20
2022-10-23T08:19:29.629Z,1001.22
2022-10-23T08:20:29.605Z,1001.22
2022-10-23T08:21:29.592Z,1001.22
2022-10-23T08:22:29.580Z,1001.16
2022-10-23T08:23:29.560Z,1001.23
2022-10-23T08:24:29.555Z,1001.19
2022-10-23T08:25:29.704Z,1001.13
2022-10-23T08:26:29.545Z,1001.12
2022-10-23T08:27:29.514Z,1001.10
2022-10-23T08:28:29.503Z,1001.10
2022-10-23T08:29:29.486Z,1001.07
2022-10-23T08:30:29.514Z,1001.09
2022-10-23T08:31:29.470Z,1001.09
2022-10-23T08:32:29.460Z,1001.06
2022-10-23T08:33:29.475Z,1001.06
2022-10-23T08:34:29.448Z,1001.02
2022-10-23T08:35:29.432Z,1001.00
2022-10-23T08:36:29.394Z,1001.02
2022-10-23T08:37:29.446Z,1001.01
2022-10-23T08:38:29.387Z,1000.99
2022-10-23T08:39:29.383Z,1000.96
2022-10-23T08:40:29.358Z,1000.91
2022-10-23T08:41:29.331Z,1000.88
2022-10-23T08:42:29.364Z,1000.85
2022-10-23T08:43:29.315Z,1000.81
2022-10-23T08:44:29.351Z,1000.87
2022-10-23T08:45:29.289Z,1000.83
2022-10-23T08:46:29.278Z,1000.82
2022-10-23T08:47:29.272Z,1000.91
2022-10-23T08:48:29.246Z,1000.90
2022-10-23T08:49:29.237Z,1000.92
2022-10-23T08:51:29.212Z,1001.01
2022-10-23T08:52:29.243Z,1000.96
2022-10-23T08:53:29.185Z,1000.94
2022-10-23T08:54:29.168Z,1000.88
2022-10-23T08:55:29.174Z,1000.83
2022-10-23T08:56:29.168Z,1000.81
2022-10-23T08:57:29.130Z,1000.78
2022-10-23T08:58:29.121Z,1000.79
2022-10-23T08:59:29.121Z,1000.77
2022-10-23T09:00:29.287Z,1000.79
2022-10-23T09:01:29.142Z,1000.76
2022-10-23T09:02:29.079Z,1000.77
2022-10-23T09:03:29.086Z,1000.73
2022-10-23T09:04:29.041Z,1000.73
2022-10-23T09:05:29.035Z,1000.72
2022-10-23T09:06:29.021Z,1000.72
2022-10-23T09:07:29.043Z,1000.71
2022-10-23T09:08:29.012Z,1000.72
2022-10-23T09:09:29.012Z,1000.76
2022-10-23T09:10:29.181Z,1000.76
2022-10-23T09:11:28.973Z,1000.73
2022-10-23T09:12:28.948Z,1000.70
2022-10-23T09:13:28.935Z,1000.68
2022-10-23T09:14:28.927Z,1000.66
2022-10-23T09:15:28.904Z,1000.68
2022-10-23T09:16:28.887Z,1000.70
2022-10-23T09:17:28.876Z,1000.61
2022-10-23T09:18:28.883Z,1000.62
2022-10-23T09:19:28.852Z,1000.65
2022-10-23T09:20:28.866Z,1000.64
2022-10-23T09:21:28.831Z,1000.64
2022-10-23T09:22:28.815Z,1000.61
2022-10-23T09:23:28.805Z,1000.64
2022-10-23T09:24:28.803Z,1000.61
2022-10-23T09:25:28.784Z,1000.52
2022-10-23T09:26:28.773Z,1000.56
2022-10-23T09:27:28.743Z,1000.53
2022-10-23T09:28:28.737Z,1000.52
2022-10-23T09:29:28.739Z,1000.42
2022-10-23T09:30:28.710Z,1000.44
2022-10-23T09:31:28.702Z,1000.35
2022-10-23T09:32:28.697Z,1000.33
2022-10-23T09:33:28.679Z,1000.34
2022-10-23T09:34:28.673Z,1000.39
2022-10-23T09:35:28.648Z,1000.35
2022-10-23T09:36:28.647Z,1000.33
2022-10-23T09:37:28.643Z,1000.27
2022-10-23T09:38:28.626Z,1000.29
2022-10-23T09:39:28.612Z,1000.22
2022-10-23T09:40:28.586Z,1000.22
2022-10-23T09:41:28.577Z,1000.18
2022-10-23T09:42:28.584Z,1000.15
2022-10-23T09:43:28.571Z,1000.22
2022-10-23T09:44:28.562Z,1000.17
2022-10-23T09:45:28.540Z,1000.15
2022-10-23T09:46:28.509Z,1000.15
2022-10-23T09:47:28.505Z,1000.17
2022-10-23T09:48:28.492Z,1000.21
2022-10-23T09:49:28.475Z,1000.16
2022-10-23T09:50:28.469Z,1000.16
2022-10-23T09:51:28.462Z,1000.22
2022-10-23T09:52:28.452Z,1000.09
2022-10-23T09:53:28.422Z,1000.14
2022-10-23T09:54:28.420Z,1000.18
2022-10-23T09:55:28.417Z,1000.18
2022-10-23T09:56:28.409Z,1000.19
2022-10-23T09:57:28.380Z,1000.12
2022-10-23T09:58:28.367Z,1000.14
2022-10-23T09:59:28.413Z,1000.17
2022-10-23T10:00:28.337Z,1000.18
2022-10-23T10:01:28.502Z,1000.13
2022-10-23T10:02:28.315Z,1000.16
2022-10-23T10:03:28.298Z,1000.12
2022-10-23T10:04:28.279Z,1000.19
2022-10-23T10:05:28.271Z,1000.16
2022-10-23T10:06:28.328Z,1000.05
2022-10-23T10:07:29.427Z,1000.08
2022-10-23T10:08:28.235Z,1000.05
2022-10-23T10:09:28.249Z,1000.06
2022-10-23T10:10:28.213Z,1000.08
2022-10-23T10:11:28.207Z,1000.05
2022-10-23T10:12:28.199Z,1000.02
2022-10-23T10:13:28.170Z,1000.05
2022-10-23T10:14:28.168Z,999.97
2022-10-23T10:15:28.145Z,1000.01
2022-10-23T10:16:28.248Z,999.99
2022-10-23T10:17:28.113Z,999.98
2022-10-23T10:18:28.140Z,999.97
2022-10-23T10:19:28.104Z,999.91
2022-10-23T10:20:28.086Z,999.88
2022-10-23T10:21:28.064Z,999.88
2022-10-23T10:22:28.056Z,999.93
2022-10-23T10:23:28.053Z,999.89
2022-10-23T10:24:28.026Z,999.86
2022-10-23T10:25:28.020Z,999.90
2022-10-23T10:27:28.019Z,999.85
2022-10-23T10:28:27.981Z,999.88
2022-10-23T10:29:27.957Z,999.85
2022-10-23T10:30:27.976Z,999.83
2022-10-23T10:31:27.941Z,999.83
2022-10-23T10:32:27.944Z,999.82
2022-10-23T10:33:27.909Z,999.75
2022-10-23T10:34:27.895Z,999.81
2022-10-23T10:35:27.884Z,999.67
2022-10-23T10:36:27.885Z,999.65
2022-10-23T10:37:27.855Z,999.70
2022-10-23T10:38:27.856Z,999.66
2022-10-23T10:39:27.847Z,999.63
2022-10-23T10:40:27.828Z,999.66
2022-10-23T10:41:27.817Z,999.64
2022-10-23T10:42:27.816Z,999.61
2022-10-23T10:43:27.790Z,999.60
2022-10-23T10:44:27.787Z,999.60
2022-10-23T10:45:27.793Z,999.61
2022-10-23T10:46:27.747Z,999.57
2022-10-23T10:47:27.735Z,999.52
2022-10-23T10:48:27.740Z,999.51
2022-10-23T10:49:27.706Z,999.47
2022-10-23T10:50:27.713Z,999.44
2022-10-23T10:51:34.191Z,999.49
2022-10-23T10:52:27.668Z,999.44
2022-10-23T10:53:28.384Z,999.40
2022-10-23T10:54:27.672Z,999.44
2022-10-23T10:55:27.642Z,999.46
2022-10-23T10:56:27.645Z,999.42
2022-10-23T10:57:27.617Z,999.46
2022-10-23T10:58:27.622Z,999.46
2022-10-23T10:59:27.586Z,999.39
2022-10-23T11:00:27.577Z,999.36
2022-10-23T11:01:27.694Z,999.36
2022-10-23T11:02:27.583Z,999.38
2022-10-23T11:03:27.530Z,999.37
2022-10-23T11:04:27.511Z,999.40
2022-10-23T11:05:27.506Z,999.37
2022-10-23T11:06:27.511Z,999.32
2022-10-23T11:07:27.480Z,999.30
2022-10-23T11:08:27.487Z,999.27
2022-10-23T11:09:27.464Z,999.24
2022-10-23T11:10:27.446Z,999.29
2022-10-23T11:11:27.441Z,999.31
2022-10-23T11:12:27.433Z,999.26
2022-10-23T11:13:27.415Z,999.16
2022-10-23T11:14:27.427Z,999.18
2022-10-23T11:15:27.377Z,999.11
2022-10-23T11:16:27.375Z,999.03
2022-10-23T11:17:27.345Z,999.03
2022-10-23T11:18:27.333Z,998.94
2022-10-23T11:19:27.366Z,998.98
2022-10-23T11:20:27.334Z,998.87
2022-10-23T11:21:27.318Z,998.87
2022-10-23T11:22:27.302Z,998.85
2022-10-23T11:23:27.279Z,998.82
2022-10-23T11:24:27.276Z,998.78
2022-10-23T11:25:27.257Z,998.79
2022-10-23T11:26:27.260Z,998.81
2022-10-23T11:27:27.227Z,998.71
2022-10-23T11:28:27.216Z,998.71
2022-10-23T11:29:27.200Z,998.75
2022-10-23T11:30:27.198Z,998.73
2022-10-23T11:31:27.176Z,998.68
2022-10-23T11:32:27.218Z,998.65
2022-10-23T11:33:27.145Z,998.62
2022-10-23T11:34:27.148Z,998.52
2022-10-23T11:35:27.147Z,998.62
2022-10-23T11:36:27.109Z,998.56
2022-10-23T11:37:27.108Z,998.58
2022-10-23T11:38:27.136Z,998.53
2022-10-23T11:39:27.076Z,998.47
2022-10-23T11:40:27.066Z,998.45
2022-10-23T11:41:27.340Z,998.46
2022-10-23T11:42:27.033Z,998.39
2022-10-23T11:43:27.017Z,998.37
2022-10-23T11:44:27.031Z,998.28
2022-10-23T11:45:26.994Z,998.19
2022-10-23T11:46:27.000Z,998.22
2022-10-23T11:47:26.974Z,998.27
2022-10-23T11:48:26.958Z,998.25
2022-10-23T11:49:27.268Z,998.23
2022-10-23T11:50:26.964Z,998.21
2022-10-23T11:51:26.933Z,998.20
2022-10-23T11:52:26.907Z,998.32
2022-10-23T11:53:26.903Z,998.32
2022-10-23T11:54:26.884Z,998.35
2022-10-23T11:55:26.877Z,998.30
2022-10-23T11:56:26.918Z,998.22
2022-10-23T11:57:26.907Z,998.29
2022-10-23T11:58:26.843Z,998.17
2022-10-23T11:59:26.860Z,998.17
2022-10-23T12:00:26.816Z,998.18
2022-10-23T12:01:27.400Z,998.16
2022-10-23T12:02:26.930Z,998.14
2022-10-23T12:03:26.777Z,998.16
2022-10-23T12:04:26.761Z,998.19
2022-10-23T12:05:29.338Z,998.17
2022-10-23T12:06:26.733Z,998.18
2022-10-23T12:07:26.985Z,998.08
2022-10-23T12:08:26.737Z,998.17
2022-10-23T12:09:26.710Z,998.06
2022-10-23T12:10:26.700Z,998.12
2022-10-23T12:11:27.669Z,997.89